sensor_id;sensor_type;location;lat;lon;timestamp;temperature;humidity
23591;DHT22;11973;52.098;7.582;2024-01-30T00:01:56;4.10;99.90
23591;DHT22;11973;52.098;7.582;2024-01-30T00:04:22;4.10;99.90
23591;DHT22;11973;52.098;7.582;2024-01-30T00:06:47;4.10;99.90
23591;DHT22;11973;52.098;7.582;2024-01-30T00:09:13;4.10;99.90
23591;DHT22;11973;52.098;7.582;2024-01-30T00:11:39;4.10;99.90
23591;DHT22;11973;52.098;7.582;2024-01-30T00:14:05;4.00;99.90
23591;DHT22;11973;52.098;7.582;2024-01-30T00:16:31;4.00;99.90
23591;DHT22;11973;52.098;7.582;2024-01-30T00:18:57;4.00;99.90
23591;DHT22;11973;52.098;7.582;2024-01-30T00:21:23;4.00;99.90
23591;DHT22;11973;52.098;7.582;2024-01-30T00:23:49;3.90;99.90
23591;DHT22;11973;52.098;7.582;2024-01-30T00:26:16;3.90;99.90
23591;DHT22;11973;52.098;7.582;2024-01-30T00:28:42;3.90;99.90
23591;DHT22;11973;52.098;7.582;2024-01-30T05:16:10;3.90;99.90
23591;DHT22;11973;52.098;7.582;2024-01-30T05:18:35;3.90;99.90
23591;DHT22;11973;52.098;7.582;2024-01-30T05:21:02;3.80;99.90
23591;DHT22;11973;52.098;7.582;2024-01-30T05:23:29;3.90;99.90
23591;DHT22;11973;52.098;7.582;2024-01-30T05:25:55;3.90;99.90
23591;DHT22;11973;52.098;7.582;2024-01-30T05:28:20;4.00;99.90
23591;DHT22;11973;52.098;7.582;2024-01-30T05:30:46;4.00;99.90
23591;DHT22;11973;52.098;7.582;2024-01-30T05:33:12;4.00;99.90
23591;DHT22;11973;52.098;7.582;2024-01-30T05:35:39;4.00;99.90
23591;DHT22;11973;52.098;7.582;2024-01-30T05:38:04;3.90;99.90
23591;DHT22;11973;52.098;7.582;2024-01-30T05:40:30;3.90;99.90
23591;DHT22;11973;52.098;7.582;2024-01-30T05:42:57;4.00;99.90
23591;DHT22;11973;52.098;7.582;2024-01-30T05:45:27;4.00;99.90
23591;DHT22;11973;52.098;7.582;2024-01-30T05:47:53;4.00;99.90
23591;DHT22;11973;52.098;7.582;2024-01-30T05:50:19;4.00;99.90
23591;DHT22;11973;52.098;7.582;2024-01-30T05:52:45;4.00;99.90
23591;DHT22;11973;52.098;7.582;2024-01-30T05:55:12;4.00;99.90
23591;DHT22;11973;52.098;7.582;2024-01-30T05:57:38;4.00;99.90
23591;DHT22;11973;52.098;7.582;2024-01-30T06:00:05;4.00;99.90
23591;DHT22;11973;52.098;7.582;2024-01-30T06:02:32;4.00;99.90
23591;DHT22;11973;52.098;7.582;2024-01-30T06:04:58;4.00;99.90
23591;DHT22;11973;52.098;7.582;2024-01-30T06:07:24;4.10;99.90
23591;DHT22;11973;52.098;7.582;2024-01-30T06:09:50;4.10;99.90
23591;DHT22;11973;52.098;7.582;2024-01-30T06:12:15;4.10;99.90
23591;DHT22;11973;52.098;7.582;2024-01-30T06:14:41;4.10;99.90
23591;DHT22;11973;52.098;7.582;2024-01-30T06:17:11;4.10;99.90
23591;DHT22;11973;52.098;7.582;2024-01-30T06:19:38;4.10;99.90
23591;DHT22;11973;52.098;7.582;2024-01-30T06:22:07;4.20;99.90
23591;DHT22;11973;52.098;7.582;2024-01-30T06:24:33;4.10;99.90
23591;DHT22;11973;52.098;7.582;2024-01-30T06:27:03;4.20;99.90
23591;DHT22;11973;52.098;7.582;2024-01-30T06:29:32;4.20;99.90
23591;DHT22;11973;52.098;7.582;2024-01-30T06:31:58;4.20;99.90
23591;DHT22;11973;52.098;7.582;2024-01-30T06:34:23;4.20;99.90
23591;DHT22;11973;52.098;7.582;2024-01-30T06:36:49;4.10;99.90
23591;DHT22;11973;52.098;7.582;2024-01-30T06:39:15;4.10;99.90
23591;DHT22;11973;52.098;7.582;2024-01-30T06:41:41;4.10;99.90
23591;DHT22;11973;52.098;7.582;2024-01-30T06:44:06;4.10;99.90
23591;DHT22;11973;52.098;7.582;2024-01-30T06:46:34;4.10;99.90
23591;DHT22;11973;52.098;7.582;2024-01-30T06:48:59;4.10;99.90
23591;DHT22;11973;52.098;7.582;2024-01-30T06:51:25;4.10;99.90
23591;DHT22;11973;52.098;7.582;2024-01-30T06:53:51;4.10;99.90
23591;DHT22;11973;52.098;7.582;2024-01-30T06:56:17;4.10;99.90
23591;DHT22;11973;52.098;7.582;2024-01-30T06:58:50;4.10;99.90
23591;DHT22;11973;52.098;7.582;2024-01-30T07:01:16;4.10;99.90
23591;DHT22;11973;52.098;7.582;2024-01-30T07:03:42;4.10;99.90
23591;DHT22;11973;52.098;7.582;2024-01-30T07:06:09;4.10;99.90
23591;DHT22;11973;52.098;7.582;2024-01-30T07:08:36;4.10;99.90
23591;DHT22;11973;52.098;7.582;2024-01-30T07:11:05;4.10;99.90
23591;DHT22;11973;52.098;7.582;2024-01-30T07:13:32;4.10;99.90
23591;DHT22;11973;52.098;7.582;2024-01-30T07:15:58;4.10;99.90
23591;DHT22;11973;52.098;7.582;2024-01-30T07:18:24;4.20;99.90
23591;DHT22;11973;52.098;7.582;2024-01-30T07:20:49;4.20;99.90
23591;DHT22;11973;52.098;7.582;2024-01-30T07:23:16;4.20;99.90
23591;DHT22;11973;52.098;7.582;2024-01-30T07:25:46;4.20;99.90
23591;DHT22;11973;52.098;7.582;2024-01-30T07:28:15;4.20;99.90
23591;DHT22;11973;52.098;7.582;2024-01-30T07:30:44;4.20;99.90
23591;DHT22;11973;52.098;7.582;2024-01-30T07:33:10;4.20;99.90
23591;DHT22;11973;52.098;7.582;2024-01-30T07:35:36;4.20;99.90
23591;DHT22;11973;52.098;7.582;2024-01-30T07:38:02;4.20;99.90
23591;DHT22;11973;52.098;7.582;2024-01-30T07:40:28;4.20;99.90
23591;DHT22;11973;52.098;7.582;2024-01-30T07:42:54;4.30;99.90
23591;DHT22;11973;52.098;7.582;2024-01-30T07:45:20;4.30;99.90
23591;DHT22;11973;52.098;7.582;2024-01-30T07:47:51;4.30;99.90
23591;DHT22;11973;52.098;7.582;2024-01-30T07:50:17;4.30;99.90
23591;DHT22;11973;52.098;7.582;2024-01-30T07:52:43;4.40;99.90
23591;DHT22;11973;52.098;7.582;2024-01-30T07:55:09;4.40;99.90
23591;DHT22;11973;52.098;7.582;2024-01-30T07:57:35;4.50;99.90
23591;DHT22;11973;52.098;7.582;2024-01-30T08:00:02;4.50;99.90
23591;DHT22;11973;52.098;7.582;2024-01-30T08:02:32;4.60;99.90
23591;DHT22;11973;52.098;7.582;2024-01-30T08:04:58;4.60;99.90
23591;DHT22;11973;52.098;7.582;2024-01-30T08:07:24;4.70;99.90
23591;DHT22;11973;52.098;7.582;2024-01-30T08:09:50;4.70;99.90
23591;DHT22;11973;52.098;7.582;2024-01-30T08:12:16;4.80;99.90
23591;DHT22;11973;52.098;7.582;2024-01-30T08:14:42;4.80;99.90
23591;DHT22;11973;52.098;7.582;2024-01-30T08:17:08;4.80;99.90
23591;DHT22;11973;52.098;7.582;2024-01-30T08:19:34;4.90;99.90
23591;DHT22;11973;52.098;7.582;2024-01-30T08:22:00;4.90;99.90
23591;DHT22;11973;52.098;7.582;2024-01-30T08:24:25;5.00;99.90
23591;DHT22;11973;52.098;7.582;2024-01-30T08:26:51;5.00;99.90
23591;DHT22;11973;52.098;7.582;2024-01-30T08:29:17;5.10;99.90
23591;DHT22;11973;52.098;7.582;2024-01-30T08:31:42;5.10;99.90
23591;DHT22;11973;52.098;7.582;2024-01-30T08:34:09;5.20;99.90
23591;DHT22;11973;52.098;7.582;2024-01-30T08:36:36;5.20;99.90
23591;DHT22;11973;52.098;7.582;2024-01-30T08:39:02;5.30;99.90
23591;DHT22;11973;52.098;7.582;2024-01-30T08:41:28;5.30;99.90
23591;DHT22;11973;52.098;7.582;2024-01-30T08:43:54;5.40;99.90
23591;DHT22;11973;52.098;7.582;2024-01-30T08:46:19;5.50;99.90
23591;DHT22;11973;52.098;7.582;2024-01-30T08:48:46;5.50;99.90
23591;DHT22;11973;52.098;7.582;2024-01-30T08:51:13;5.50;99.90
23591;DHT22;11973;52.098;7.582;2024-01-30T08:53:39;5.60;99.90
23591;DHT22;11973;52.098;7.582;2024-01-30T08:56:06;5.70;99.90
23591;DHT22;11973;52.098;7.582;2024-01-30T08:58:32;5.80;99.90
23591;DHT22;11973;52.098;7.582;2024-01-30T09:00:58;5.80;99.90
23591;DHT22;11973;52.098;7.582;2024-01-30T09:03:24;5.80;99.90
23591;DHT22;11973;52.098;7.582;2024-01-30T09:05:50;5.90;99.90
23591;DHT22;11973;52.098;7.582;2024-01-30T09:08:16;6.00;99.90
23591;DHT22;11973;52.098;7.582;2024-01-30T09:10:41;6.00;99.90
23591;DHT22;11973;52.098;7.582;2024-01-30T09:13:07;6.10;99.90
23591;DHT22;11973;52.098;7.582;2024-01-30T09:15:33;6.20;99.90
23591;DHT22;11973;52.098;7.582;2024-01-30T09:17:58;6.30;99.90
23591;DHT22;11973;52.098;7.582;2024-01-30T09:20:24;6.30;99.90
23591;DHT22;11973;52.098;7.582;2024-01-30T09:22:50;6.40;99.90
23591;DHT22;11973;52.098;7.582;2024-01-30T09:25:16;6.40;99.90
23591;DHT22;11973;52.098;7.582;2024-01-30T09:27:42;6.50;99.90
23591;DHT22;11973;52.098;7.582;2024-01-30T09:30:08;6.50;99.90
23591;DHT22;11973;52.098;7.582;2024-01-30T09:32:33;6.60;99.90
23591;DHT22;11973;52.098;7.582;2024-01-30T09:34:59;6.70;99.90
23591;DHT22;11973;52.098;7.582;2024-01-30T09:37:25;6.80;99.90
23591;DHT22;11973;52.098;7.582;2024-01-30T09:39:51;6.90;99.90
23591;DHT22;11973;52.098;7.582;2024-01-30T09:42:35;7.00;99.90
23591;DHT22;11973;52.098;7.582;2024-01-30T09:45:03;7.10;99.90
23591;DHT22;11973;52.098;7.582;2024-01-30T09:47:43;7.10;99.90
23591;DHT22;11973;52.098;7.582;2024-01-30T09:50:13;7.20;99.90
23591;DHT22;11973;52.098;7.582;2024-01-30T09:52:39;7.30;99.90
23591;DHT22;11973;52.098;7.582;2024-01-30T09:55:06;7.40;99.90
23591;DHT22;11973;52.098;7.582;2024-01-30T09:57:33;7.40;99.90
23591;DHT22;11973;52.098;7.582;2024-01-30T09:59:59;7.50;99.90
23591;DHT22;11973;52.098;7.582;2024-01-30T10:02:25;7.50;99.90
23591;DHT22;11973;52.098;7.582;2024-01-30T10:04:51;7.60;99.90
23591;DHT22;11973;52.098;7.582;2024-01-30T10:07:20;7.60;99.90
23591;DHT22;11973;52.098;7.582;2024-01-30T10:09:46;7.70;99.90
23591;DHT22;11973;52.098;7.582;2024-01-30T10:12:12;7.70;99.90
23591;DHT22;11973;52.098;7.582;2024-01-30T10:14:39;7.80;99.90
23591;DHT22;11973;52.098;7.582;2024-01-30T10:17:07;7.80;99.90
23591;DHT22;11973;52.098;7.582;2024-01-30T10:19:32;7.90;99.90
23591;DHT22;11973;52.098;7.582;2024-01-30T10:22:00;7.90;99.90
23591;DHT22;11973;52.098;7.582;2024-01-30T10:24:26;8.00;99.90
23591;DHT22;11973;52.098;7.582;2024-01-30T10:26:53;8.00;99.90
23591;DHT22;11973;52.098;7.582;2024-01-30T10:29:19;8.10;99.90
23591;DHT22;11973;52.098;7.582;2024-01-30T10:31:45;8.20;99.90
23591;DHT22;11973;52.098;7.582;2024-01-30T10:34:11;8.30;99.90
23591;DHT22;11973;52.098;7.582;2024-01-30T10:36:40;8.40;99.90
23591;DHT22;11973;52.098;7.582;2024-01-30T10:39:09;8.40;99.90
23591;DHT22;11973;52.098;7.582;2024-01-30T10:41:45;8.50;99.90
23591;DHT22;11973;52.098;7.582;2024-01-30T10:44:18;8.60;99.90
23591;DHT22;11973;52.098;7.582;2024-01-30T10:46:49;8.70;99.90
23591;DHT22;11973;52.098;7.582;2024-01-30T10:49:16;8.80;99.90
23591;DHT22;11973;52.098;7.582;2024-01-30T10:51:43;8.90;99.90
23591;DHT22;11973;52.098;7.582;2024-01-30T10:54:10;9.00;99.90
23591;DHT22;11973;52.098;7.582;2024-01-30T10:56:37;9.00;99.90
23591;DHT22;11973;52.098;7.582;2024-01-30T10:59:04;9.10;99.90
23591;DHT22;11973;52.098;7.582;2024-01-30T11:01:30;9.20;99.90
23591;DHT22;11973;52.098;7.582;2024-01-30T11:03:56;9.20;99.90
23591;DHT22;11973;52.098;7.582;2024-01-30T11:06:25;9.30;99.90
23591;DHT22;11973;52.098;7.582;2024-01-30T11:09:04;9.30;99.90
23591;DHT22;11973;52.098;7.582;2024-01-30T11:14:16;9.60;99.90
23591;DHT22;11973;52.098;7.582;2024-01-30T11:16:42;9.80;99.90
23591;DHT22;11973;52.098;7.582;2024-01-30T11:19:11;9.90;99.90
23591;DHT22;11973;52.098;7.582;2024-01-30T11:21:50;10.10;99.90
23591;DHT22;11973;52.098;7.582;2024-01-30T11:24:20;10.20;99.90
23591;DHT22;11973;52.098;7.582;2024-01-30T11:26:58;10.30;99.90
23591;DHT22;11973;52.098;7.582;2024-01-30T11:29:28;10.50;99.90
23591;DHT22;11973;52.098;7.582;2024-01-30T11:31:58;10.60;99.90
23591;DHT22;11973;52.098;7.582;2024-01-30T11:34:24;10.60;99.90
23591;DHT22;11973;52.098;7.582;2024-01-30T11:36:59;10.70;99.90
23591;DHT22;11973;52.098;7.582;2024-01-30T11:39:29;10.70;99.90
23591;DHT22;11973;52.098;7.582;2024-01-30T11:41:55;10.80;99.90
23591;DHT22;11973;52.098;7.582;2024-01-30T11:44:22;10.80;99.90
23591;DHT22;11973;52.098;7.582;2024-01-30T11:46:48;10.90;99.90
23591;DHT22;11973;52.098;7.582;2024-01-30T11:49:15;10.90;99.90
23591;DHT22;11973;52.098;7.582;2024-01-30T11:51:41;10.90;99.90
23591;DHT22;11973;52.098;7.582;2024-01-30T11:54:07;11.00;99.90
23591;DHT22;11973;52.098;7.582;2024-01-30T11:56:33;11.00;99.90
23591;DHT22;11973;52.098;7.582;2024-01-30T11:58:59;10.90;99.90
23591;DHT22;11973;52.098;7.582;2024-01-30T12:01:26;10.90;99.90
23591;DHT22;11973;52.098;7.582;2024-01-30T12:03:52;11.00;99.90
23591;DHT22;11973;52.098;7.582;2024-01-30T12:06:18;11.00;99.90
23591;DHT22;11973;52.098;7.582;2024-01-30T12:08:56;11.00;99.90
23591;DHT22;11973;52.098;7.582;2024-01-30T12:11:23;11.00;99.90
23591;DHT22;11973;52.098;7.582;2024-01-30T12:13:50;11.00;99.90
23591;DHT22;11973;52.098;7.582;2024-01-30T12:16:16;11.00;99.90
23591;DHT22;11973;52.098;7.582;2024-01-30T12:18:42;11.00;99.90
23591;DHT22;11973;52.098;7.582;2024-01-30T12:21:08;10.90;99.90
23591;DHT22;11973;52.098;7.582;2024-01-30T12:23:35;11.00;99.90
23591;DHT22;11973;52.098;7.582;2024-01-30T12:26:01;11.00;99.90
23591;DHT22;11973;52.098;7.582;2024-01-30T12:28:29;11.10;99.90
23591;DHT22;11973;52.098;7.582;2024-01-30T12:31:02;11.10;99.90
23591;DHT22;11973;52.098;7.582;2024-01-30T12:33:29;11.20;99.90
23591;DHT22;11973;52.098;7.582;2024-01-30T12:35:55;11.20;99.90
23591;DHT22;11973;52.098;7.582;2024-01-30T12:38:21;11.30;99.90
23591;DHT22;11973;52.098;7.582;2024-01-30T12:40:47;11.30;99.90
23591;DHT22;11973;52.098;7.582;2024-01-30T12:43:16;11.30;99.90
23591;DHT22;11973;52.098;7.582;2024-01-30T12:45:42;11.30;99.90
23591;DHT22;11973;52.098;7.582;2024-01-30T12:48:09;11.30;99.90
23591;DHT22;11973;52.098;7.582;2024-01-30T12:50:34;11.30;99.90
23591;DHT22;11973;52.098;7.582;2024-01-30T12:53:00;11.30;99.90
23591;DHT22;11973;52.098;7.582;2024-01-30T12:55:26;11.30;99.90
23591;DHT22;11973;52.098;7.582;2024-01-30T12:57:54;11.30;99.90
23591;DHT22;11973;52.098;7.582;2024-01-30T13:00:21;11.30;99.90
23591;DHT22;11973;52.098;7.582;2024-01-30T13:02:48;11.30;99.90
23591;DHT22;11973;52.098;7.582;2024-01-30T13:05:14;11.30;99.90
23591;DHT22;11973;52.098;7.582;2024-01-30T13:07:39;11.30;99.90
23591;DHT22;11973;52.098;7.582;2024-01-30T13:10:05;11.40;99.90
23591;DHT22;11973;52.098;7.582;2024-01-30T13:12:31;11.40;99.90
23591;DHT22;11973;52.098;7.582;2024-01-30T13:15:01;11.40;99.90
23591;DHT22;11973;52.098;7.582;2024-01-30T13:17:29;11.40;99.90
23591;DHT22;11973;52.098;7.582;2024-01-30T13:19:54;11.40;99.90
23591;DHT22;11973;52.098;7.582;2024-01-30T13:22:20;11.50;99.90
23591;DHT22;11973;52.098;7.582;2024-01-30T13:24:50;11.50;99.90
23591;DHT22;11973;52.098;7.582;2024-01-30T13:27:16;11.50;99.90
23591;DHT22;11973;52.098;7.582;2024-01-30T13:29:41;11.50;99.90
23591;DHT22;11973;52.098;7.582;2024-01-30T13:32:07;11.50;99.90
23591;DHT22;11973;52.098;7.582;2024-01-30T13:34:33;11.50;99.90
23591;DHT22;11973;52.098;7.582;2024-01-30T13:36:59;11.50;99.90
23591;DHT22;11973;52.098;7.582;2024-01-30T13:39:25;11.50;99.90
23591;DHT22;11973;52.098;7.582;2024-01-30T13:41:50;11.60;99.90
23591;DHT22;11973;52.098;7.582;2024-01-30T13:44:16;11.60;99.90
23591;DHT22;11973;52.098;7.582;2024-01-30T13:46:43;11.70;99.90
23591;DHT22;11973;52.098;7.582;2024-01-30T13:49:09;11.70;99.90
23591;DHT22;11973;52.098;7.582;2024-01-30T13:51:34;11.80;99.90
23591;DHT22;11973;52.098;7.582;2024-01-30T13:54:01;11.90;99.90
23591;DHT22;11973;52.098;7.582;2024-01-30T13:56:27;11.90;99.90
23591;DHT22;11973;52.098;7.582;2024-01-30T13:58:53;12.00;99.90
23591;DHT22;11973;52.098;7.582;2024-01-30T14:01:18;12.00;99.90
23591;DHT22;11973;52.098;7.582;2024-01-30T14:03:44;12.10;99.90
23591;DHT22;11973;52.098;7.582;2024-01-30T14:06:11;12.10;99.90
23591;DHT22;11973;52.098;7.582;2024-01-30T14:08:37;12.20;99.90
23591;DHT22;11973;52.098;7.582;2024-01-30T14:11:03;12.20;99.90
23591;DHT22;11973;52.098;7.582;2024-01-30T14:13:29;12.20;99.90
23591;DHT22;11973;52.098;7.582;2024-01-30T14:15:56;12.20;99.90
23591;DHT22;11973;52.098;7.582;2024-01-30T14:18:22;12.10;99.90
23591;DHT22;11973;52.098;7.582;2024-01-30T14:20:48;12.10;99.90
23591;DHT22;11973;52.098;7.582;2024-01-30T14:23:16;12.00;99.90
23591;DHT22;11973;52.098;7.582;2024-01-30T14:25:42;11.90;99.90
23591;DHT22;11973;52.098;7.582;2024-01-30T14:28:08;11.90;99.90
23591;DHT22;11973;52.098;7.582;2024-01-30T14:30:34;11.80;99.90
23591;DHT22;11973;52.098;7.582;2024-01-30T14:32:59;11.80;99.90
23591;DHT22;11973;52.098;7.582;2024-01-30T14:35:25;11.80;99.90
23591;DHT22;11973;52.098;7.582;2024-01-30T14:37:51;11.70;99.90
23591;DHT22;11973;52.098;7.582;2024-01-30T14:40:18;11.70;99.90
23591;DHT22;11973;52.098;7.582;2024-01-30T14:42:43;11.70;99.90
23591;DHT22;11973;52.098;7.582;2024-01-30T14:45:09;11.60;99.90
23591;DHT22;11973;52.098;7.582;2024-01-30T14:47:35;11.70;99.90
23591;DHT22;11973;52.098;7.582;2024-01-30T14:50:02;11.60;99.90
23591;DHT22;11973;52.098;7.582;2024-01-30T14:52:29;11.60;99.90
23591;DHT22;11973;52.098;7.582;2024-01-30T14:54:55;11.60;99.90
23591;DHT22;11973;52.098;7.582;2024-01-30T14:57:21;11.60;99.90
23591;DHT22;11973;52.098;7.582;2024-01-30T14:59:46;11.60;99.90
23591;DHT22;11973;52.098;7.582;2024-01-30T15:02:13;11.50;99.90
23591;DHT22;11973;52.098;7.582;2024-01-30T15:04:40;11.50;99.90
23591;DHT22;11973;52.098;7.582;2024-01-30T15:07:05;11.50;99.90
23591;DHT22;11973;52.098;7.582;2024-01-30T15:09:31;11.50;99.90
23591;DHT22;11973;52.098;7.582;2024-01-30T15:11:57;11.50;99.90
23591;DHT22;11973;52.098;7.582;2024-01-30T15:14:23;11.40;99.90
23591;DHT22;11973;52.098;7.582;2024-01-30T15:16:50;11.40;99.90
23591;DHT22;11973;52.098;7.582;2024-01-30T15:19:15;11.40;99.90
23591;DHT22;11973;52.098;7.582;2024-01-30T15:21:41;11.40;99.90
23591;DHT22;11973;52.098;7.582;2024-01-30T15:24:07;11.30;99.90
23591;DHT22;11973;52.098;7.582;2024-01-30T15:26:33;11.30;99.90
23591;DHT22;11973;52.098;7.582;2024-01-30T15:28:58;11.30;99.90
23591;DHT22;11973;52.098;7.582;2024-01-30T15:31:24;11.30;99.90
23591;DHT22;11973;52.098;7.582;2024-01-30T15:33:50;11.30;99.90
23591;DHT22;11973;52.098;7.582;2024-01-30T15:36:16;11.20;99.90
23591;DHT22;11973;52.098;7.582;2024-01-30T15:38:42;11.20;99.90
23591;DHT22;11973;52.098;7.582;2024-01-30T15:41:08;11.20;99.90
23591;DHT22;11973;52.098;7.582;2024-01-30T15:43:33;11.20;99.90
23591;DHT22;11973;52.098;7.582;2024-01-30T15:46:00;11.10;99.90
23591;DHT22;11973;52.098;7.582;2024-01-30T15:48:28;11.10;99.90
23591;DHT22;11973;52.098;7.582;2024-01-30T15:50:54;11.10;99.90
23591;DHT22;11973;52.098;7.582;2024-01-30T15:53:21;11.10;99.90
23591;DHT22;11973;52.098;7.582;2024-01-30T15:55:47;11.00;99.90
23591;DHT22;11973;52.098;7.582;2024-01-30T15:58:13;11.00;99.90
23591;DHT22;11973;52.098;7.582;2024-01-30T16:00:40;10.90;99.90
23591;DHT22;11973;52.098;7.582;2024-01-30T16:03:06;10.90;99.90
23591;DHT22;11973;52.098;7.582;2024-01-30T16:05:32;10.80;99.90
23591;DHT22;11973;52.098;7.582;2024-01-30T16:07:58;10.70;99.90
23591;DHT22;11973;52.098;7.582;2024-01-30T16:10:24;10.60;99.90
23591;DHT22;11973;52.098;7.582;2024-01-30T16:12:50;10.50;99.90
23591;DHT22;11973;52.098;7.582;2024-01-30T16:15:16;10.40;99.90
23591;DHT22;11973;52.098;7.582;2024-01-30T16:17:44;10.40;99.90
23591;DHT22;11973;52.098;7.582;2024-01-30T16:20:09;10.30;99.90
23591;DHT22;11973;52.098;7.582;2024-01-30T16:22:35;10.30;99.90
23591;DHT22;11973;52.098;7.582;2024-01-30T16:25:05;10.20;99.90
23591;DHT22;11973;52.098;7.582;2024-01-30T16:27:30;10.20;99.90
23591;DHT22;11973;52.098;7.582;2024-01-30T16:29:56;10.20;99.90
23591;DHT22;11973;52.098;7.582;2024-01-30T16:32:22;10.20;99.90
23591;DHT22;11973;52.098;7.582;2024-01-30T16:34:48;10.10;99.90
23591;DHT22;11973;52.098;7.582;2024-01-30T16:37:14;10.10;99.90
23591;DHT22;11973;52.098;7.582;2024-01-30T16:39:40;10.10;99.90
23591;DHT22;11973;52.098;7.582;2024-01-30T16:42:10;10.10;99.90
23591;DHT22;11973;52.098;7.582;2024-01-30T16:44:37;10.10;99.90
23591;DHT22;11973;52.098;7.582;2024-01-30T16:47:03;10.10;99.90
23591;DHT22;11973;52.098;7.582;2024-01-30T16:49:29;10.00;99.90
23591;DHT22;11973;52.098;7.582;2024-01-30T16:51:55;10.00;99.90
23591;DHT22;11973;52.098;7.582;2024-01-30T16:54:21;10.00;99.90
23591;DHT22;11973;52.098;7.582;2024-01-30T16:56:46;10.00;99.90
23591;DHT22;11973;52.098;7.582;2024-01-30T16:59:16;10.00;99.90
23591;DHT22;11973;52.098;7.582;2024-01-30T17:01:43;10.00;99.90
23591;DHT22;11973;52.098;7.582;2024-01-30T17:04:11;10.00;99.90
23591;DHT22;11973;52.098;7.582;2024-01-30T17:06:37;10.00;99.90
23591;DHT22;11973;52.098;7.582;2024-01-30T17:09:02;10.00;99.90
23591;DHT22;11973;52.098;7.582;2024-01-30T17:11:28;9.90;99.90
23591;DHT22;11973;52.098;7.582;2024-01-30T17:13:54;9.90;99.90
23591;DHT22;11973;52.098;7.582;2024-01-30T17:16:20;9.90;99.90
23591;DHT22;11973;52.098;7.582;2024-01-30T17:18:46;9.90;99.90
23591;DHT22;11973;52.098;7.582;2024-01-30T17:21:22;9.90;99.90
23591;DHT22;11973;52.098;7.582;2024-01-30T17:23:47;9.80;99.90
23591;DHT22;11973;52.098;7.582;2024-01-30T17:26:13;9.80;99.90
23591;DHT22;11973;52.098;7.582;2024-01-30T17:28:39;9.80;99.90
23591;DHT22;11973;52.098;7.582;2024-01-30T17:31:04;9.80;99.90
23591;DHT22;11973;52.098;7.582;2024-01-30T17:33:30;9.80;99.90
23591;DHT22;11973;52.098;7.582;2024-01-30T17:35:56;9.70;99.90
23591;DHT22;11973;52.098;7.582;2024-01-30T17:38:22;9.70;99.90
23591;DHT22;11973;52.098;7.582;2024-01-30T17:40:48;9.70;99.90
23591;DHT22;11973;52.098;7.582;2024-01-30T17:43:16;9.60;99.90
23591;DHT22;11973;52.098;7.582;2024-01-30T17:45:41;9.70;99.90
23591;DHT22;11973;52.098;7.582;2024-01-30T17:48:07;9.60;99.90
23591;DHT22;11973;52.098;7.582;2024-01-30T17:50:33;9.60;99.90
23591;DHT22;11973;52.098;7.582;2024-01-30T17:52:58;9.60;99.90
23591;DHT22;11973;52.098;7.582;2024-01-30T17:55:24;9.60;99.90
23591;DHT22;11973;52.098;7.582;2024-01-30T17:57:50;9.50;99.90
23591;DHT22;11973;52.098;7.582;2024-01-30T18:00:16;9.50;99.90
23591;DHT22;11973;52.098;7.582;2024-01-30T18:02:42;9.50;99.90
23591;DHT22;11973;52.098;7.582;2024-01-30T18:05:10;9.50;99.90
23591;DHT22;11973;52.098;7.582;2024-01-30T18:07:36;9.50;99.90
23591;DHT22;11973;52.098;7.582;2024-01-30T18:10:05;9.40;99.90
23591;DHT22;11973;52.098;7.582;2024-01-30T18:12:31;9.40;99.90
23591;DHT22;11973;52.098;7.582;2024-01-30T18:14:56;9.40;99.90
23591;DHT22;11973;52.098;7.582;2024-01-30T18:17:22;9.40;99.90
23591;DHT22;11973;52.098;7.582;2024-01-30T18:19:48;9.40;99.90
23591;DHT22;11973;52.098;7.582;2024-01-30T18:22:14;9.30;99.90
23591;DHT22;11973;52.098;7.582;2024-01-30T18:24:39;9.30;99.90
23591;DHT22;11973;52.098;7.582;2024-01-30T18:27:06;9.30;99.90
23591;DHT22;11973;52.098;7.582;2024-01-30T18:29:33;9.30;99.90
23591;DHT22;11973;52.098;7.582;2024-01-30T18:31:58;9.30;99.90
23591;DHT22;11973;52.098;7.582;2024-01-30T18:34:24;9.20;99.90
23591;DHT22;11973;52.098;7.582;2024-01-30T18:36:50;9.20;99.90
23591;DHT22;11973;52.098;7.582;2024-01-30T18:39:15;9.20;99.90
23591;DHT22;11973;52.098;7.582;2024-01-30T18:41:41;9.10;99.90
23591;DHT22;11973;52.098;7.582;2024-01-30T18:44:07;9.10;99.90
23591;DHT22;11973;52.098;7.582;2024-01-30T18:46:33;9.10;99.90
23591;DHT22;11973;52.098;7.582;2024-01-30T18:48:58;9.00;99.90
23591;DHT22;11973;52.098;7.582;2024-01-30T18:51:24;9.00;99.90
23591;DHT22;11973;52.098;7.582;2024-01-30T18:53:50;9.00;99.90
23591;DHT22;11973;52.098;7.582;2024-01-30T18:56:17;8.90;99.90
23591;DHT22;11973;52.098;7.582;2024-01-30T18:58:45;8.90;99.90
23591;DHT22;11973;52.098;7.582;2024-01-30T19:01:10;8.80;99.90
23591;DHT22;11973;52.098;7.582;2024-01-30T19:03:37;8.80;99.90
23591;DHT22;11973;52.098;7.582;2024-01-30T19:06:03;8.80;99.90
23591;DHT22;11973;52.098;7.582;2024-01-30T19:08:29;8.80;99.90
23591;DHT22;11973;52.098;7.582;2024-01-30T19:10:56;8.80;99.90
23591;DHT22;11973;52.098;7.582;2024-01-30T19:13:22;8.80;99.90
23591;DHT22;11973;52.098;7.582;2024-01-30T19:15:47;8.80;99.90
23591;DHT22;11973;52.098;7.582;2024-01-30T19:18:13;8.70;99.90
23591;DHT22;11973;52.098;7.582;2024-01-30T19:20:39;8.70;99.90
23591;DHT22;11973;52.098;7.582;2024-01-30T19:23:06;8.70;99.90
23591;DHT22;11973;52.098;7.582;2024-01-30T19:25:32;8.70;99.90
23591;DHT22;11973;52.098;7.582;2024-01-30T19:27:58;8.70;99.90
23591;DHT22;11973;52.098;7.582;2024-01-30T19:30:27;8.70;99.90
23591;DHT22;11973;52.098;7.582;2024-01-30T19:32:54;8.70;99.90
23591;DHT22;11973;52.098;7.582;2024-01-30T19:35:20;8.60;99.90
23591;DHT22;11973;52.098;7.582;2024-01-30T19:37:46;8.60;99.90
23591;DHT22;11973;52.098;7.582;2024-01-30T19:40:12;8.60;99.90
23591;DHT22;11973;52.098;7.582;2024-01-30T19:42:38;8.60;99.90
23591;DHT22;11973;52.098;7.582;2024-01-30T19:45:07;8.60;99.90
23591;DHT22;11973;52.098;7.582;2024-01-30T19:47:37;8.60;99.90
23591;DHT22;11973;52.098;7.582;2024-01-30T19:50:03;8.60;99.90
23591;DHT22;11973;52.098;7.582;2024-01-30T19:52:29;8.50;99.90
23591;DHT22;11973;52.098;7.582;2024-01-30T19:54:55;8.50;99.90
23591;DHT22;11973;52.098;7.582;2024-01-30T19:57:21;8.50;99.90
23591;DHT22;11973;52.098;7.582;2024-01-30T19:59:46;8.50;99.90
23591;DHT22;11973;52.098;7.582;2024-01-30T20:02:12;8.50;99.90
23591;DHT22;11973;52.098;7.582;2024-01-30T20:04:41;8.40;99.90
23591;DHT22;11973;52.098;7.582;2024-01-30T20:07:10;8.50;99.90
23591;DHT22;11973;52.098;7.582;2024-01-30T20:09:37;8.40;99.90
23591;DHT22;11973;52.098;7.582;2024-01-30T20:12:03;8.40;99.90
23591;DHT22;11973;52.098;7.582;2024-01-30T20:14:29;8.40;99.90
23591;DHT22;11973;52.098;7.582;2024-01-30T20:16:55;8.40;99.90
23591;DHT22;11973;52.098;7.582;2024-01-30T20:19:21;8.30;99.90
23591;DHT22;11973;52.098;7.582;2024-01-30T20:21:46;8.30;99.90
23591;DHT22;11973;52.098;7.582;2024-01-30T20:24:12;8.30;99.90